sensor_id;sensor_type;location;lat;lon;timestamp;P1;P4;P2;P0;N10;N4;N25;N1;N05;TS
40102;SPS30;25814;48.550;9.108;2023-06-24T00:00:33;0.00;0.00;0.00;0.00;0.00;0.00;0.00;0.00;0.00;1.06
40102;SPS30;25814;48.550;9.108;2023-06-24T00:02:59;0.00;0.00;0.00;0.00;0.00;0.00;0.00;0.00;0.00;1.06
40102;SPS30;25814;48.550;9.108;2023-06-24T00:05:27;0.00;0.00;0.00;0.00;0.00;0.00;0.00;0.00;0.00;1.06
40102;SPS30;25814;48.550;9.108;2023-06-24T00:07:54;0.00;0.00;0.00;0.00;0.00;0.00;0.00;0.00;0.00;1.06
40102;SPS30;25814;48.550;9.108;2023-06-24T00:10:22;0.00;0.00;0.00;0.00;0.00;0.00;0.00;0.00;0.00;1.06
40102;SPS30;25814;48.550;9.108;2023-06-24T00:12:48;0.00;0.00;0.00;0.00;0.00;0.00;0.00;0.00;0.00;1.06
40102;SPS30;25814;48.550;9.108;2023-06-24T00:15:14;0.00;0.00;0.00;0.00;0.00;0.00;0.00;0.00;0.00;1.06
40102;SPS30;25814;48.550;9.108;2023-06-24T00:17:40;0.00;0.00;0.00;0.00;0.00;0.00;0.00;0.00;0.00;1.06
40102;SPS30;25814;48.550;9.108;2023-06-24T00:20:07;0.00;0.00;0.00;0.00;0.00;0.00;0.00;0.00;0.00;1.06
40102;SPS30;25814;48.550;9.108;2023-06-24T00:22:35;0.00;0.00;0.00;0.00;0.00;0.00;0.00;0.00;0.00;1.06
40102;SPS30;25814;48.550;9.108;2023-06-24T00:25:02;0.00;0.00;0.00;0.00;0.00;0.00;0.00;0.00;0.00;1.06
40102;SPS30;25814;48.550;9.108;2023-06-24T00:27:30;0.00;0.00;0.00;0.00;0.00;0.00;0.00;0.00;0.00;1.06
40102;SPS30;25814;48.550;9.108;2023-06-24T00:29:56;0.00;0.00;0.00;0.00;0.00;0.00;0.00;0.00;0.00;1.06
40102;SPS30;25814;48.550;9.108;2023-06-24T00:32:22;0.00;0.00;0.00;0.00;0.00;0.00;0.00;0.00;0.00;1.06
40102;SPS30;25814;48.550;9.108;2023-06-24T00:34:48;0.00;0.00;0.00;0.00;0.00;0.00;0.00;0.00;0.00;1.06
40102;SPS30;25814;48.550;9.108;2023-06-24T00:37:15;0.00;0.00;0.00;0.00;0.00;0.00;0.00;0.00;0.00;1.06
40102;SPS30;25814;48.550;9.108;2023-06-24T00:39:41;0.00;0.00;0.00;0.00;0.00;0.00;0.00;0.00;0.00;1.06
40102;SPS30;25814;48.550;9.108;2023-06-24T00:42:07;0.00;0.00;0.00;0.00;0.00;0.00;0.00;0.00;0.00;1.06
40102;SPS30;25814;48.550;9.108;2023-06-24T00:44:34;0.00;0.00;0.00;0.00;0.00;0.00;0.00;0.00;0.00;1.06
40102;SPS30;25814;48.550;9.108;2023-06-24T00:47:02;0.00;0.00;0.00;0.00;0.00;0.00;0.00;0.00;0.00;1.06
40102;SPS30;25814;48.550;9.108;2023-06-24T00:49:29;0.00;0.00;0.00;0.00;0.00;0.00;0.00;0.00;0.00;1.06
40102;SPS30;25814;48.550;9.108;2023-06-24T00:51:55;0.00;0.00;0.00;0.00;0.00;0.00;0.00;0.00;0.00;1.06
40102;SPS30;25814;48.550;9.108;2023-06-24T00:54:21;0.00;0.00;0.00;0.00;0.00;0.00;0.00;0.00;0.00;1.06
40102;SPS30;25814;48.550;9.108;2023-06-24T00:56:56;0.00;0.00;0.00;0.00;0.00;0.00;0.00;0.00;0.00;1.06
40102;SPS30;25814;48.550;9.108;2023-06-24T00:59:25;0.00;0.00;0.00;0.00;0.00;0.00;0.00;0.00;0.00;1.06
40102;SPS30;25814;48.550;9.108;2023-06-24T01:01:55;0.00;0.00;0.00;0.00;0.00;0.00;0.00;0.00;0.00;1.06
40102;SPS30;25814;48.550;9.108;2023-06-24T01:04:21;0.00;0.00;0.00;0.00;0.00;0.00;0.00;0.00;0.00;1.06
40102;SPS30;25814;48.550;9.108;2023-06-24T01:06:50;0.00;0.00;0.00;0.00;0.00;0.00;0.00;0.00;0.00;1.06
40102;SPS30;25814;48.550;9.108;2023-06-24T01:09:16;0.00;0.00;0.00;0.00;0.00;0.00;0.00;0.00;0.00;1.06
40102;SPS30;25814;48.550;9.108;2023-06-24T01:11:42;0.00;0.00;0.00;0.00;0.00;0.00;0.00;0.00;0.00;1.06
40102;SPS30;25814;48.550;9.108;2023-06-24T01:14:08;0.00;0.00;0.00;0.00;0.00;0.00;0.00;0.00;0.00;1.06
40102;SPS30;25814;48.550;9.108;2023-06-24T01:19:04;0.00;0.00;0.00;0.00;0.00;0.00;0.00;0.00;0.00;1.06
40102;SPS30;25814;48.550;9.108;2023-06-24T01:24:47;0.00;0.00;0.00;0.00;0.00;0.00;0.00;0.00;0.00;1.06
40102;SPS30;25814;48.550;9.108;2023-06-24T01:27:32;0.00;0.00;0.00;0.00;0.00;0.00;0.00;0.00;0.00;1.06
40102;SPS30;25814;48.550;9.108;2023-06-24T01:30:38;0.00;0.00;0.00;0.00;0.00;0.00;0.00;0.00;0.00;1.06
40102;SPS30;25814;48.550;9.108;2023-06-24T01:36:18;0.00;0.00;0.00;0.00;0.00;0.00;0.00;0.00;0.00;1.06
40102;SPS30;25814;48.550;9.108;2023-06-24T01:39:07;0.00;0.00;0.00;0.00;0.00;0.00;0.00;0.00;0.00;1.06
40102;SPS30;25814;48.550;9.108;2023-06-24T01:41:41;0.00;0.00;0.00;0.00;0.00;0.00;0.00;0.00;0.00;1.06
40102;SPS30;25814;48.550;9.108;2023-06-24T01:44:12;0.00;0.00;0.00;0.00;0.00;0.00;0.00;0.00;0.00;1.06
40102;SPS30;25814;48.550;9.108;2023-06-24T01:46:41;0.00;0.00;0.00;0.00;0.00;0.00;0.00;0.00;0.00;1.06
40102;SPS30;25814;48.550;9.108;2023-06-24T01:49:12;0.00;0.00;0.00;0.00;0.00;0.00;0.00;0.00;0.00;1.06
40102;SPS30;25814;48.550;9.108;2023-06-24T01:51:41;0.00;0.00;0.00;0.00;0.00;0.00;0.00;0.00;0.00;1.06
40102;SPS30;25814;48.550;9.108;2023-06-24T01:54:13;0.00;0.00;0.00;0.00;0.00;0.00;0.00;0.00;0.00;1.06
40102;SPS30;25814;48.550;9.108;2023-06-24T01:56:44;0.00;0.00;0.00;0.00;0.00;0.00;0.00;0.00;0.00;1.06
40102;SPS30;25814;48.550;9.108;2023-06-24T01:59:15;0.00;0.00;0.00;0.00;0.00;0.00;0.00;0.00;0.00;1.06
40102;SPS30;25814;48.550;9.108;2023-06-24T02:01:45;0.00;0.00;0.00;0.00;0.00;0.00;0.00;0.00;0.00;1.06
40102;SPS30;25814;48.550;9.108;2023-06-24T02:04:13;0.00;0.00;0.00;0.00;0.00;0.00;0.00;0.00;0.00;1.06
40102;SPS30;25814;48.550;9.108;2023-06-24T02:06:42;0.00;0.00;0.00;0.00;0.00;0.00;0.00;0.00;0.00;1.06
40102;SPS30;25814;48.550;9.108;2023-06-24T02:09:10;0.00;0.00;0.00;0.00;0.00;0.00;0.00;0.00;0.00;1.06
40102;SPS30;25814;48.550;9.108;2023-06-24T02:11:38;0.00;0.00;0.00;0.00;0.00;0.00;0.00;0.00;0.00;1.06
40102;SPS30;25814;48.550;9.108;2023-06-24T02:14:05;0.00;0.00;0.00;0.00;0.00;0.00;0.00;0.00;0.00;1.06
40102;SPS30;25814;48.550;9.108;2023-06-24T02:16:34;0.00;0.00;0.00;0.00;0.00;0.00;0.00;0.00;0.00;1.06
40102;SPS30;25814;48.550;9.108;2023-06-24T02:19:02;0.00;0.00;0.00;0.00;0.00;0.00;0.00;0.00;0.00;1.06
40102;SPS30;25814;48.550;9.108;2023-06-24T02:21:29;0.00;0.00;0.00;0.00;0.00;0.00;0.00;0.00;0.00;1.06
40102;SPS30;25814;48.550;9.108;2023-06-24T02:24:00;0.00;0.00;0.00;0.00;0.00;0.00;0.00;0.00;0.00;1.06
40102;SPS30;25814;48.550;9.108;2023-06-24T02:26:28;0.00;0.00;0.00;0.00;0.00;0.00;0.00;0.00;0.00;1.06
40102;SPS30;25814;48.550;9.108;2023-06-24T02:28:54;0.00;0.00;0.00;0.00;0.00;0.00;0.00;0.00;0.00;1.06
40102;SPS30;25814;48.550;9.108;2023-06-24T02:31:21;0.00;0.00;0.00;0.00;0.00;0.00;0.00;0.00;0.00;1.06
40102;SPS30;25814;48.550;9.108;2023-06-24T02:33:47;0.00;0.00;0.00;0.00;0.00;0.00;0.00;0.00;0.00;1.06
40102;SPS30;25814;48.550;9.108;2023-06-24T02:36:13;0.00;0.00;0.00;0.00;0.00;0.00;0.00;0.00;0.00;1.06
40102;SPS30;25814;48.550;9.108;2023-06-24T02:38:39;0.00;0.00;0.00;0.00;0.00;0.00;0.00;0.00;0.00;1.06
40102;SPS30;25814;48.550;9.108;2023-06-24T02:41:05;0.00;0.00;0.00;0.00;0.00;0.00;0.00;0.00;0.00;1.06
40102;SPS30;25814;48.550;9.108;2023-06-24T02:43:32;0.00;0.00;0.00;0.00;0.00;0.00;0.00;0.00;0.00;1.06
40102;SPS30;25814;48.550;9.108;2023-06-24T02:46:01;0.00;0.00;0.00;0.00;0.00;0.00;0.00;0.00;0.00;1.06
40102;SPS30;25814;48.550;9.108;2023-06-24T02:48:29;0.00;0.00;0.00;0.00;0.00;0.00;0.00;0.00;0.00;1.06
40102;SPS30;25814;48.550;9.108;2023-06-24T02:51:00;0.00;0.00;0.00;0.00;0.00;0.00;0.00;0.00;0.00;1.06
40102;SPS30;25814;48.550;9.108;2023-06-24T02:53:30;0.00;0.00;0.00;0.00;0.00;0.00;0.00;0.00;0.00;1.06
40102;SPS30;25814;48.550;9.108;2023-06-24T02:55:56;0.00;0.00;0.00;0.00;0.00;0.00;0.00;0.00;0.00;1.06
40102;SPS30;25814;48.550;9.108;2023-06-24T02:58:24;0.00;0.00;0.00;0.00;0.00;0.00;0.00;0.00;0.00;1.06
40102;SPS30;25814;48.550;9.108;2023-06-24T03:00:57;0.00;0.00;0.00;0.00;0.00;0.00;0.00;0.00;0.00;1.06
40102;SPS30;25814;48.550;9.108;2023-06-24T03:03:26;0.00;0.00;0.00;0.00;0.00;0.00;0.00;0.00;0.00;1.06
40102;SPS30;25814;48.550;9.108;2023-06-24T03:05:53;0.00;0.00;0.00;0.00;0.00;0.00;0.00;0.00;0.00;1.06
40102;SPS30;25814;48.550;9.108;2023-06-24T03:08:22;0.00;0.00;0.00;0.00;0.00;0.00;0.00;0.00;0.00;1.06
40102;SPS30;25814;48.550;9.108;2023-06-24T03:10:50;0.00;0.00;0.00;0.00;0.00;0.00;0.00;0.00;0.00;1.06
40102;SPS30;25814;48.550;9.108;2023-06-24T03:13:16;0.00;0.00;0.00;0.00;0.00;0.00;0.00;0.00;0.00;1.06
40102;SPS30;25814;48.550;9.108;2023-06-24T03:15:43;0.00;0.00;0.00;0.00;0.00;0.00;0.00;0.00;0.00;1.06
40102;SPS30;25814;48.550;9.108;2023-06-24T03:18:09;0.00;0.00;0.00;0.00;0.00;0.00;0.00;0.00;0.00;1.06
40102;SPS30;25814;48.550;9.108;2023-06-24T03:20:35;0.00;0.00;0.00;0.00;0.00;0.00;0.00;0.00;0.00;1.06
40102;SPS30;25814;48.550;9.108;2023-06-24T03:23:04;0.00;0.00;0.00;0.00;0.00;0.00;0.00;0.00;0.00;1.06
40102;SPS30;25814;48.550;9.108;2023-06-24T03:25:31;0.00;0.00;0.00;0.00;0.00;0.00;0.00;0.00;0.00;1.06
40102;SPS30;25814;48.550;9.108;2023-06-24T03:27:58;0.00;0.00;0.00;0.00;0.00;0.00;0.00;0.00;0.00;1.06
40102;SPS30;25814;48.550;9.108;2023-06-24T03:30:26;0.00;0.00;0.00;0.00;0.00;0.00;0.00;0.00;0.00;1.06
40102;SPS30;25814;48.550;9.108;2023-06-24T03:32:52;0.00;0.00;0.00;0.00;0.00;0.00;0.00;0.00;0.00;1.06
40102;SPS30;25814;48.550;9.108;2023-06-24T03:35:18;0.00;0.00;0.00;0.00;0.00;0.00;0.00;0.00;0.00;1.06
40102;SPS30;25814;48.550;9.108;2023-06-24T03:37:44;0.00;0.00;0.00;0.00;0.00;0.00;0.00;0.00;0.00;1.06
40102;SPS30;25814;48.550;9.108;2023-06-24T03:40:10;0.00;0.00;0.00;0.00;0.00;0.00;0.00;0.00;0.00;1.06
40102;SPS30;25814;48.550;9.108;2023-06-24T03:42:37;0.00;0.00;0.00;0.00;0.00;0.00;0.00;0.00;0.00;1.06
40102;SPS30;25814;48.550;9.108;2023-06-24T03:45:03;0.00;0.00;0.00;0.00;0.00;0.00;0.00;0.00;0.00;1.06
40102;SPS30;25814;48.550;9.108;2023-06-24T03:47:29;0.00;0.00;0.00;0.00;0.00;0.00;0.00;0.00;0.00;1.06
40102;SPS30;25814;48.550;9.108;2023-06-24T03:49:55;0.00;0.00;0.00;0.00;0.00;0.00;0.00;0.00;0.00;1.06
40102;SPS30;25814;48.550;9.108;2023-06-24T03:52:21;0.00;0.00;0.00;0.00;0.00;0.00;0.00;0.00;0.00;1.06
40102;SPS30;25814;48.550;9.108;2023-06-24T03:54:47;0.00;0.00;0.00;0.00;0.00;0.00;0.00;0.00;0.00;1.06
40102;SPS30;25814;48.550;9.108;2023-06-24T03:57:13;0.00;0.00;0.00;0.00;0.00;0.00;0.00;0.00;0.00;1.06
40102;SPS30;25814;48.550;9.108;2023-06-24T03:59:39;0.00;0.00;0.00;0.00;0.00;0.00;0.00;0.00;0.00;1.06
40102;SPS30;25814;48.550;9.108;2023-06-24T04:02:05;0.00;0.00;0.00;0.00;0.00;0.00;0.00;0.00;0.00;1.06
40102;SPS30;25814;48.550;9.108;2023-06-24T04:04:35;0.00;0.00;0.00;0.00;0.00;0.00;0.00;0.00;0.00;1.06
40102;SPS30;25814;48.550;9.108;2023-06-24T04:07:01;0.00;0.00;0.00;0.00;0.00;0.00;0.00;0.00;0.00;1.06
40102;SPS30;25814;48.550;9.108;2023-06-24T04:09:33;0.00;0.00;0.00;0.00;0.00;0.00;0.00;0.00;0.00;1.06
40102;SPS30;25814;48.550;9.108;2023-06-24T04:12:00;0.00;0.00;0.00;0.00;0.00;0.00;0.00;0.00;0.00;1.06
40102;SPS30;25814;48.550;9.108;2023-06-24T04:14:26;0.00;0.00;0.00;0.00;0.00;0.00;0.00;0.00;0.00;1.06
40102;SPS30;25814;48.550;9.108;2023-06-24T04:16:53;0.00;0.00;0.00;0.00;0.00;0.00;0.00;0.00;0.00;1.06
40102;SPS30;25814;48.550;9.108;2023-06-24T04:19:19;0.00;0.00;0.00;0.00;0.00;0.00;0.00;0.00;0.00;1.06
40102;SPS30;25814;48.550;9.108;2023-06-24T04:21:45;0.00;0.00;0.00;0.00;0.00;0.00;0.00;0.00;0.00;1.06
40102;SPS30;25814;48.550;9.108;2023-06-24T04:24:11;0.00;0.00;0.00;0.00;0.00;0.00;0.00;0.00;0.00;1.06
40102;SPS30;25814;48.550;9.108;2023-06-24T04:26:37;0.00;0.00;0.00;0.00;0.00;0.00;0.00;0.00;0.00;1.06
40102;SPS30;25814;48.550;9.108;2023-06-24T04:29:03;0.00;0.00;0.00;0.00;0.00;0.00;0.00;0.00;0.00;1.06
40102;SPS30;25814;48.550;9.108;2023-06-24T04:31:29;0.00;0.00;0.00;0.00;0.00;0.00;0.00;0.00;0.00;1.06
40102;SPS30;25814;48.550;9.108;2023-06-24T04:33:55;0.00;0.00;0.00;0.00;0.00;0.00;0.00;0.00;0.00;1.06
40102;SPS30;25814;48.550;9.108;2023-06-24T04:36:21;0.00;0.00;0.00;0.00;0.00;0.00;0.00;0.00;0.00;1.06
40102;SPS30;25814;48.550;9.108;2023-06-24T04:38:47;0.00;0.00;0.00;0.00;0.00;0.00;0.00;0.00;0.00;1.06
40102;SPS30;25814;48.550;9.108;2023-06-24T04:41:13;0.00;0.00;0.00;0.00;0.00;0.00;0.00;0.00;0.00;1.06
40102;SPS30;25814;48.550;9.108;2023-06-24T04:43:39;0.00;0.00;0.00;0.00;0.00;0.00;0.00;0.00;0.00;1.06
40102;SPS30;25814;48.550;9.108;2023-06-24T04:46:05;0.00;0.00;0.00;0.00;0.00;0.00;0.00;0.00;0.00;1.06
40102;SPS30;25814;48.550;9.108;2023-06-24T04:48:31;0.00;0.00;0.00;0.00;0.00;0.00;0.00;0.00;0.00;1.06
40102;SPS30;25814;48.550;9.108;2023-06-24T04:50:57;0.00;0.00;0.00;0.00;0.00;0.00;0.00;0.00;0.00;1.06
40102;SPS30;25814;48.550;9.108;2023-06-24T04:53:23;0.00;0.00;0.00;0.00;0.00;0.00;0.00;0.00;0.00;1.06
40102;SPS30;25814;48.550;9.108;2023-06-24T04:55:49;0.00;0.00;0.00;0.00;0.00;0.00;0.00;0.00;0.00;1.06
40102;SPS30;25814;48.550;9.108;2023-06-24T04:58:16;0.00;0.00;0.00;0.00;0.00;0.00;0.00;0.00;0.00;1.06
40102;SPS30;25814;48.550;9.108;2023-06-24T05:00:42;0.00;0.00;0.00;0.00;0.00;0.00;0.00;0.00;0.00;1.06
40102;SPS30;25814;48.550;9.108;2023-06-24T05:03:09;0.00;0.00;0.00;0.00;0.00;0.00;0.00;0.00;0.00;1.06
40102;SPS30;25814;48.550;9.108;2023-06-24T05:05:35;0.00;0.00;0.00;0.00;0.00;0.00;0.00;0.00;0.00;1.06
40102;SPS30;25814;48.550;9.108;2023-06-24T05:08:01;0.00;0.00;0.00;0.00;0.00;0.00;0.00;0.00;0.00;1.06
40102;SPS30;25814;48.550;9.108;2023-06-24T05:10:27;0.00;0.00;0.00;0.00;0.00;0.00;0.00;0.00;0.00;1.06
40102;SPS30;25814;48.550;9.108;2023-06-24T05:12:53;0.00;0.00;0.00;0.00;0.00;0.00;0.00;0.00;0.00;1.06
40102;SPS30;25814;48.550;9.108;2023-06-24T05:15:19;0.00;0.00;0.00;0.00;0.00;0.00;0.00;0.00;0.00;1.06
40102;SPS30;25814;48.550;9.108;2023-06-24T05:17:45;0.00;0.00;0.00;0.00;0.00;0.00;0.00;0.00;0.00;1.06
40102;SPS30;25814;48.550;9.108;2023-06-24T05:20:11;0.00;0.00;0.00;0.00;0.00;0.00;0.00;0.00;0.00;1.06
40102;SPS30;25814;48.550;9.108;2023-06-24T05:22:37;0.00;0.00;0.00;0.00;0.00;0.00;0.00;0.00;0.00;1.06
40102;SPS30;25814;48.550;9.108;2023-06-24T05:25:03;0.00;0.00;0.00;0.00;0.00;0.00;0.00;0.00;0.00;1.06
40102;SPS30;25814;48.550;9.108;2023-06-24T05:27:30;0.00;0.00;0.00;0.00;0.00;0.00;0.00;0.00;0.00;1.06
40102;SPS30;25814;48.550;9.108;2023-06-24T05:29:56;0.00;0.00;0.00;0.00;0.00;0.00;0.00;0.00;0.00;1.06
40102;SPS30;25814;48.550;9.108;2023-06-24T05:32:22;0.00;0.00;0.00;0.00;0.00;0.00;0.00;0.00;0.00;1.06
40102;SPS30;25814;48.550;9.108;2023-06-24T05:34:48;0.00;0.00;0.00;0.00;0.00;0.00;0.00;0.00;0.00;1.06
40102;SPS30;25814;48.550;9.108;2023-06-24T05:37:14;0.00;0.00;0.00;0.00;0.00;0.00;0.00;0.00;0.00;1.06
40102;SPS30;25814;48.550;9.108;2023-06-24T05:39:40;0.00;0.00;0.00;0.00;0.00;0.00;0.00;0.00;0.00;1.06
40102;SPS30;25814;48.550;9.108;2023-06-24T05:42:06;0.00;0.00;0.00;0.00;0.00;0.00;0.00;0.00;0.00;1.06
40102;SPS30;25814;48.550;9.108;2023-06-24T05:44:32;0.00;0.00;0.00;0.00;0.00;0.00;0.00;0.00;0.00;1.06
40102;SPS30;25814;48.550;9.108;2023-06-24T05:46:58;0.00;0.00;0.00;0.00;0.00;0.00;0.00;0.00;0.00;1.06
40102;SPS30;25814;48.550;9.108;2023-06-24T05:49:24;0.00;0.00;0.00;0.00;0.00;0.00;0.00;0.00;0.00;1.06
40102;SPS30;25814;48.550;9.108;2023-06-24T05:51:51;0.00;0.00;0.00;0.00;0.00;0.00;0.00;0.00;0.00;1.06
40102;SPS30;25814;48.550;9.108;2023-06-24T05:54:17;0.00;0.00;0.00;0.00;0.00;0.00;0.00;0.00;0.00;1.06
40102;SPS30;25814;48.550;9.108;2023-06-24T05:56:43;0.00;0.00;0.00;0.00;0.00;0.00;0.00;0.00;0.00;1.06
40102;SPS30;25814;48.550;9.108;2023-06-24T05:59:09;0.00;0.00;0.00;0.00;0.00;0.00;0.00;0.00;0.00;1.06
40102;SPS30;25814;48.550;9.108;2023-06-24T06:01:35;0.00;0.00;0.00;0.00;0.00;0.00;0.00;0.00;0.00;1.06
40102;SPS30;25814;48.550;9.108;2023-06-24T06:04:01;0.00;0.00;0.00;0.00;0.00;0.00;0.00;0.00;0.00;1.06
40102;SPS30;25814;48.550;9.108;2023-06-24T06:06:28;0.00;0.00;0.00;0.00;0.00;0.00;0.00;0.00;0.00;1.06
40102;SPS30;25814;48.550;9.108;2023-06-24T06:08:54;0.00;0.00;0.00;0.00;0.00;0.00;0.00;0.00;0.00;1.06
40102;SPS30;25814;48.550;9.108;2023-06-24T06:11:20;0.00;0.00;0.00;0.00;0.00;0.00;0.00;0.00;0.00;1.06
40102;SPS30;25814;48.550;9.108;2023-06-24T06:13:46;0.00;0.00;0.00;0.00;0.00;0.00;0.00;0.00;0.00;1.06
40102;SPS30;25814;48.550;9.108;2023-06-24T06:16:12;0.00;0.00;0.00;0.00;0.00;0.00;0.00;0.00;0.00;1.06
40102;SPS30;25814;48.550;9.108;2023-06-24T06:18:38;0.00;0.00;0.00;0.00;0.00;0.00;0.00;0.00;0.00;1.06
40102;SPS30;25814;48.550;9.108;2023-06-24T06:21:04;0.00;0.00;0.00;0.00;0.00;0.00;0.00;0.00;0.00;1.06
40102;SPS30;25814;48.550;9.108;2023-06-24T06:23:31;0.00;0.00;0.00;0.00;0.00;0.00;0.00;0.00;0.00;1.06
40102;SPS30;25814;48.550;9.108;2023-06-24T06:25:57;0.00;0.00;0.00;0.00;0.00;0.00;0.00;0.00;0.00;1.06
40102;SPS30;25814;48.550;9.108;2023-06-24T06:28:23;0.00;0.00;0.00;0.00;0.00;0.00;0.00;0.00;0.00;1.06
40102;SPS30;25814;48.550;9.108;2023-06-24T06:30:49;0.00;0.00;0.00;0.00;0.00;0.00;0.00;0.00;0.00;1.06
40102;SPS30;25814;48.550;9.108;2023-06-24T06:33:15;0.00;0.00;0.00;0.00;0.00;0.00;0.00;0.00;0.00;1.06
40102;SPS30;25814;48.550;9.108;2023-06-24T06:35:41;0.00;0.00;0.00;0.00;0.00;0.00;0.00;0.00;0.00;1.06
40102;SPS30;25814;48.550;9.108;2023-06-24T06:38:08;0.00;0.00;0.00;0.00;0.00;0.00;0.00;0.00;0.00;1.06
40102;SPS30;25814;48.550;9.108;2023-06-24T06:40:34;0.00;0.00;0.00;0.00;0.00;0.00;0.00;0.00;0.00;1.06
40102;SPS30;25814;48.550;9.108;2023-06-24T06:43:00;0.00;0.00;0.00;0.00;0.00;0.00;0.00;0.00;0.00;1.06
40102;SPS30;25814;48.550;9.108;2023-06-24T06:45:26;0.00;0.00;0.00;0.00;0.00;0.00;0.00;0.00;0.00;1.06
40102;SPS30;25814;48.550;9.108;2023-06-24T06:47:52;0.00;0.00;0.00;0.00;0.00;0.00;0.00;0.00;0.00;1.06
40102;SPS30;25814;48.550;9.108;2023-06-24T06:50:18;0.00;0.00;0.00;0.00;0.00;0.00;0.00;0.00;0.00;1.06
40102;SPS30;25814;48.550;9.108;2023-06-24T06:52:44;0.00;0.00;0.00;0.00;0.00;0.00;0.00;0.00;0.00;1.06
40102;SPS30;25814;48.550;9.108;2023-06-24T06:55:10;0.00;0.00;0.00;0.00;0.00;0.00;0.00;0.00;0.00;1.06
40102;SPS30;25814;48.550;9.108;2023-06-24T06:57:36;0.00;0.00;0.00;0.00;0.00;0.00;0.00;0.00;0.00;1.06
40102;SPS30;25814;48.550;9.108;2023-06-24T07:00:03;0.00;0.00;0.00;0.00;0.00;0.00;0.00;0.00;0.00;1.06
40102;SPS30;25814;48.550;9.108;2023-06-24T07:02:29;0.00;0.00;0.00;0.00;0.00;0.00;0.00;0.00;0.00;1.06
40102;SPS30;25814;48.550;9.108;2023-06-24T07:04:56;0.00;0.00;0.00;0.00;0.00;0.00;0.00;0.00;0.00;1.06
40102;SPS30;25814;48.550;9.108;2023-06-24T07:07:22;0.00;0.00;0.00;0.00;0.00;0.00;0.00;0.00;0.00;1.06
40102;SPS30;25814;48.550;9.108;2023-06-24T07:09:48;0.00;0.00;0.00;0.00;0.00;0.00;0.00;0.00;0.00;1.06
40102;SPS30;25814;48.550;9.108;2023-06-24T07:12:14;0.00;0.00;0.00;0.00;0.00;0.00;0.00;0.00;0.00;1.06
40102;SPS30;25814;48.550;9.108;2023-06-24T07:14:40;0.00;0.00;0.00;0.00;0.00;0.00;0.00;0.00;0.00;1.06
40102;SPS30;25814;48.550;9.108;2023-06-24T07:17:06;0.00;0.00;0.00;0.00;0.00;0.00;0.00;0.00;0.00;1.06
40102;SPS30;25814;48.550;9.108;2023-06-24T07:19:33;0.00;0.00;0.00;0.00;0.00;0.00;0.00;0.00;0.00;1.06
40102;SPS30;25814;48.550;9.108;2023-06-24T07:21:59;0.00;0.00;0.00;0.00;0.00;0.00;0.00;0.00;0.00;1.06
40102;SPS30;25814;48.550;9.108;2023-06-24T07:24:25;0.00;0.00;0.00;0.00;0.00;0.00;0.00;0.00;0.00;1.06
40102;SPS30;25814;48.550;9.108;2023-06-24T07:26:51;0.00;0.00;0.00;0.00;0.00;0.00;0.00;0.00;0.00;1.06
40102;SPS30;25814;48.550;9.108;2023-06-24T07:29:17;0.00;0.00;0.00;0.00;0.00;0.00;0.00;0.00;0.00;1.06
40102;SPS30;25814;48.550;9.108;2023-06-24T07:31:43;0.00;0.00;0.00;0.00;0.00;0.00;0.00;0.00;0.00;1.06
40102;SPS30;25814;48.550;9.108;2023-06-24T07:34:09;0.00;0.00;0.00;0.00;0.00;0.00;0.00;0.00;0.00;1.06
40102;SPS30;25814;48.550;9.108;2023-06-24T07:36:35;0.00;0.00;0.00;0.00;0.00;0.00;0.00;0.00;0.00;1.06
40102;SPS30;25814;48.550;9.108;2023-06-24T07:39:01;0.00;0.00;0.00;0.00;0.00;0.00;0.00;0.00;0.00;1.06
40102;SPS30;25814;48.550;9.108;2023-06-24T07:41:27;0.00;0.00;0.00;0.00;0.00;0.00;0.00;0.00;0.00;1.06
40102;SPS30;25814;48.550;9.108;2023-06-24T07:43:53;0.00;0.00;0.00;0.00;0.00;0.00;0.00;0.00;0.00;1.06
40102;SPS30;25814;48.550;9.108;2023-06-24T07:46:20;0.00;0.00;0.00;0.00;0.00;0.00;0.00;0.00;0.00;1.06
40102;SPS30;25814;48.550;9.108;2023-06-24T07:48:46;0.00;0.00;0.00;0.00;0.00;0.00;0.00;0.00;0.00;1.06
40102;SPS30;25814;48.550;9.108;2023-06-24T07:51:12;0.00;0.00;0.00;0.00;0.00;0.00;0.00;0.00;0.00;1.06
40102;SPS30;25814;48.550;9.108;2023-06-24T07:53:38;0.00;0.00;0.00;0.00;0.00;0.00;0.00;0.00;0.00;1.06
40102;SPS30;25814;48.550;9.108;2023-06-24T07:56:04;0.00;0.00;0.00;0.00;0.00;0.00;0.00;0.00;0.00;1.06
40102;SPS30;25814;48.550;9.108;2023-06-24T07:58:30;0.00;0.00;0.00;0.00;0.00;0.00;0.00;0.00;0.00;1.06
40102;SPS30;25814;48.550;9.108;2023-06-24T08:00:56;0.00;0.00;0.00;0.00;0.00;0.00;0.00;0.00;0.00;1.06
40102;SPS30;25814;48.550;9.108;2023-06-24T08:03:22;0.00;0.00;0.00;0.00;0.00;0.00;0.00;0.00;0.00;1.06
40102;SPS30;25814;48.550;9.108;2023-06-24T08:05:48;0.00;0.00;0.00;0.00;0.00;0.00;0.00;0.00;0.00;1.06
40102;SPS30;25814;48.550;9.108;2023-06-24T08:08:15;0.00;0.00;0.00;0.00;0.00;0.00;0.00;0.00;0.00;1.06
40102;SPS30;25814;48.550;9.108;2023-06-24T08:10:43;0.00;0.00;0.00;0.00;0.00;0.00;0.00;0.00;0.00;1.06
40102;SPS30;25814;48.550;9.108;2023-06-24T08:13:09;0.00;0.00;0.00;0.00;0.00;0.00;0.00;0.00;0.00;1.06
40102;SPS30;25814;48.550;9.108;2023-06-24T08:15:35;0.00;0.00;0.00;0.00;0.00;0.00;0.00;0.00;0.00;1.06
40102;SPS30;25814;48.550;9.108;2023-06-24T08:18:01;0.00;0.00;0.00;0.00;0.00;0.00;0.00;0.00;0.00;1.06
40102;SPS30;25814;48.550;9.108;2023-06-24T08:20:27;0.00;0.00;0.00;0.00;0.00;0.00;0.00;0.00;0.00;1.06
40102;SPS30;25814;48.550;9.108;2023-06-24T08:22:53;0.00;0.00;0.00;0.00;0.00;0.00;0.00;0.00;0.00;1.06
40102;SPS30;25814;48.550;9.108;2023-06-24T08:25:19;0.00;0.00;0.00;0.00;0.00;0.00;0.00;0.00;0.00;1.06
40102;SPS30;25814;48.550;9.108;2023-06-24T08:27:45;0.00;0.00;0.00;0.00;0.00;0.00;0.00;0.00;0.00;1.06
40102;SPS30;25814;48.550;9.108;2023-06-24T08:30:12;0.00;0.00;0.00;0.00;0.00;0.00;0.00;0.00;0.00;1.06
40102;SPS30;25814;48.550;9.108;2023-06-24T08:32:40;0.00;0.00;0.00;0.00;0.00;0.00;0.00;0.00;0.00;1.06
40102;SPS30;25814;48.550;9.108;2023-06-24T08:35:07;0.00;0.00;0.00;0.00;0.00;0.00;0.00;0.00;0.00;1.06
40102;SPS30;25814;48.550;9.108;2023-06-24T08:37:35;0.00;0.00;0.00;0.00;0.00;0.00;0.00;0.00;0.00;1.06
40102;SPS30;25814;48.550;9.108;2023-06-24T08:40:02;0.00;0.00;0.00;0.00;0.00;0.00;0.00;0.00;0.00;1.06
40102;SPS30;25814;48.550;9.108;2023-06-24T08:42:30;0.00;0.00;0.00;0.00;0.00;0.00;0.00;0.00;0.00;1.06
40102;SPS30;25814;48.550;9.108;2023-06-24T08:44:56;0.00;0.00;0.00;0.00;0.00;0.00;0.00;0.00;0.00;1.06
40102;SPS30;25814;48.550;9.108;2023-06-24T08:47:23;0.00;0.00;0.00;0.00;0.00;0.00;0.00;0.00;0.00;1.06
40102;SPS30;25814;48.550;9.108;2023-06-24T08:49:53;0.00;0.00;0.00;0.00;0.00;0.00;0.00;0.00;0.00;1.06
40102;SPS30;25814;48.550;9.108;2023-06-24T08:52:29;0.00;0.00;0.00;0.00;0.00;0.00;0.00;0.00;0.00;1.06
40102;SPS30;25814;48.550;9.108;2023-06-24T08:54:58;0.00;0.00;0.00;0.00;0.00;0.00;0.00;0.00;0.00;1.06
40102;SPS30;25814;48.550;9.108;2023-06-24T08:57:26;0.00;0.00;0.00;0.00;0.00;0.00;0.00;0.00;0.00;1.06
40102;SPS30;25814;48.550;9.108;2023-06-24T08:59:52;0.00;0.00;0.00;0.00;0.00;0.00;0.00;0.00;0.00;1.06
40102;SPS30;25814;48.550;9.108;2023-06-24T09:02:18;0.00;0.00;0.00;0.00;0.00;0.00;0.00;0.00;0.00;1.06
40102;SPS30;25814;48.550;9.108;2023-06-24T09:04:45;0.00;0.00;0.00;0.00;0.00;0.00;0.00;0.00;0.00;1.06
40102;SPS30;25814;48.550;9.108;2023-06-24T09:07:11;0.00;0.00;0.00;0.00;0.00;0.00;0.00;0.00;0.00;1.06
40102;SPS30;25814;48.550;9.108;2023-06-24T09:09:43;0.00;0.00;0.00;0.00;0.00;0.00;0.00;0.00;0.00;1.06
40102;SPS30;25814;48.550;9.108;2023-06-24T09:12:11;0.00;0.00;0.00;0.00;0.00;0.00;0.00;0.00;0.00;1.06
40102;SPS30;25814;48.550;9.108;2023-06-24T09:14:39;0.00;0.00;0.00;0.00;0.00;0.00;0.00;0.00;0.00;1.06
40102;SPS30;25814;48.550;9.108;2023-06-24T09:17:06;7223.02;6801.28;4692.59;1973.66;16104.61;16032.59;15582.36;13067.78;8058.69;1.09
40102;SPS30;25814;48.550;9.108;2023-06-24T09:19:34;5040.81;4754.02;3320.09;1464.18;11925.96;11876.84;11570.38;9854.46;6299.98;1.06
40102;SPS30;25814;48.550;9.108;2023-06-24T09:22:07;0.45;0.43;0.32;0.17;1.37;1.36;1.34;1.20;0.86;0.99
40102;SPS30;25814;48.550;9.108;2023-06-24T09:24:41;0.00;0.00;0.00;0.00;0.00;0.00;0.00;0.00;0.00;0.99
40102;SPS30;25814;48.550;9.108;2023-06-24T09:27:10;0.00;0.00;0.00;0.00;0.00;0.00;0.00;0.00;0.00;0.99
40102;SPS30;25814;48.550;9.108;2023-06-24T09:29:39;3202.76;3030.36;2168.36;1043.32;8471.83;8442.10;8257.47;7217.97;4883.09;0.98
40102;SPS30;25814;48.550;9.108;2023-06-24T09:32:06;8461.62;7965.28;5483.60;2285.88;18658.72;18574.01;18044.24;15086.68;9236.39;1.14
40102;SPS30;25814;48.550;9.108;2023-06-24T09:34:33;6591.05;6210.86;4309.92;1854.54;15119.40;15054.39;14648.33;12377.80;7770.73;1.16
40102;SPS30;25814;48.550;9.108;2023-06-24T09:37:00;2790.30;2644.57;1915.98;960.53;7788.92;7763.69;7607.43;6724.96;4655.88;1.00
40102;SPS30;25814;48.550;9.108;2023-06-24T09:39:27;4834.18;4597.96;3416.87;1851.13;14974.15;14932.88;14678.85;13233.93;9522.70;0.98
40102;SPS30;25814;48.550;9.108;2023-06-24T09:41:58;9782.83;9223.67;6427.89;2811.84;22909.71;22814.00;22216.57;18873.11;11994.95;1.17